createdAt,value
2018-01-07T00:01:26.468Z,2.11
2018-01-07T00:03:52.443Z,2.14
2018-01-07T00:06:18.239Z,2.11
2018-01-07T00:08:44.271Z,2.05
2018-01-07T00:11:10.054Z,1.97
2018-01-07T00:13:35.839Z,1.95
2018-01-07T00:16:01.703Z,2.19
2018-01-07T00:18:34.370Z,2.06
2018-01-07T00:21:00.179Z,1.96
2018-01-07T00:23:25.955Z,1.88
2018-01-07T00:25:52.068Z,1.83
2018-01-07T00:28:17.847Z,1.85
2018-01-07T00:30:43.630Z,1.77
2018-01-07T00:33:09.451Z,1.84
2018-01-07T00:35:35.243Z,1.78
2018-01-07T00:38:01.048Z,1.68
2018-01-07T00:40:26.847Z,1.73
2018-01-07T00:42:52.675Z,1.72
2018-01-07T00:45:18.490Z,1.71
2018-01-07T00:47:44.267Z,1.64
2018-01-07T00:50:10.082Z,1.60
2018-01-07T00:52:35.874Z,1.46
2018-01-07T00:55:01.663Z,1.46
2018-01-07T00:57:27.462Z,1.53
2018-01-07T00:59:53.239Z,1.48
2018-01-07T01:02:19.022Z,1.42
2018-01-07T01:04:44.828Z,1.38
2018-01-07T01:07:10.598Z,1.33
2018-01-07T01:09:36.488Z,1.29
2018-01-07T01:12:02.613Z,1.27
2018-01-07T01:14:28.390Z,1.27
2018-01-07T01:16:54.315Z,1.35
2018-01-07T01:19:20.136Z,1.38
2018-01-07T01:21:45.937Z,1.29
2018-01-07T01:24:11.730Z,1.25
2018-01-07T01:26:37.539Z,1.28
2018-01-07T01:29:03.341Z,1.20
2018-01-07T01:31:29.123Z,1.25
2018-01-07T01:33:54.934Z,1.23
2018-01-07T01:36:20.708Z,1.23
2018-01-07T01:38:46.495Z,1.20
2018-01-07T01:41:12.292Z,1.21
2018-01-07T01:43:38.063Z,1.13
2018-01-07T01:46:03.842Z,1.14
2018-01-07T01:48:29.630Z,1.16
2018-01-07T01:50:55.455Z,1.15
2018-01-07T01:53:21.241Z,1.07
2018-01-07T01:55:51.724Z,1.10
2018-01-07T01:58:17.530Z,1.00
2018-01-07T02:00:43.325Z,1.03
2018-01-07T02:03:09.107Z,1.04
2018-01-07T02:05:34.916Z,0.94
2018-01-07T02:08:00.723Z,0.92
2018-01-07T02:10:26.543Z,1.04
2018-01-07T02:12:52.344Z,2.94
2018-01-07T02:15:18.118Z,1.85
2018-01-07T02:17:43.910Z,1.29
2018-01-07T02:20:09.707Z,1.07
2018-01-07T02:22:35.561Z,0.94
2018-01-07T02:25:01.397Z,0.94
2018-01-07T02:27:27.203Z,0.88
2018-01-07T02:29:52.992Z,0.82
2018-01-07T02:32:18.819Z,0.78
2018-01-07T02:34:44.622Z,0.70
2018-01-07T02:37:10.398Z,0.74
2018-01-07T02:39:36.205Z,0.81
2018-01-07T02:42:02.040Z,0.73
2018-01-07T02:44:27.821Z,0.62
2018-01-07T02:46:54.058Z,0.65
2018-01-07T02:49:19.832Z,0.65
2018-01-07T02:51:45.612Z,0.66
2018-01-07T02:54:11.427Z,0.48
2018-01-07T02:56:37.223Z,0.52
2018-01-07T02:59:03.002Z,0.67
2018-01-07T03:01:28.793Z,0.60
2018-01-07T03:03:54.891Z,0.61
2018-01-07T03:06:20.683Z,0.52
2018-01-07T03:08:46.600Z,0.59
2018-01-07T03:11:12.384Z,0.58
2018-01-07T03:13:38.178Z,0.48
2018-01-07T03:18:36.798Z,0.54
2018-01-07T03:21:02.570Z,0.58
2018-01-07T03:23:28.350Z,0.47
2018-01-07T03:25:54.140Z,0.44
2018-01-07T03:28:19.981Z,0.47
2018-01-07T03:30:45.783Z,0.39
2018-01-07T03:33:11.574Z,0.37
2018-01-07T03:35:37.342Z,0.45
2018-01-07T03:38:03.130Z,0.46
2018-01-07T03:40:28.902Z,0.34
2018-01-07T03:42:54.673Z,0.37
2018-01-07T03:45:20.483Z,0.41
2018-01-07T03:47:46.266Z,0.34
2018-01-07T03:50:12.055Z,0.39
2018-01-07T03:52:38.083Z,0.34
2018-01-07T03:55:03.862Z,0.22
2018-01-07T03:57:29.634Z,0.23
2018-01-07T03:59:55.422Z,0.29
2018-01-07T04:02:21.207Z,1.63
2018-01-07T04:04:46.987Z,2.43
2018-01-07T04:07:12.774Z,2.09
2018-01-07T04:09:38.554Z,2.43
2018-01-07T04:12:04.337Z,2.87
2018-01-07T04:14:30.114Z,2.79
2018-01-07T04:16:56.055Z,3.11
2018-01-07T04:19:21.826Z,3.09
2018-01-07T04:21:47.599Z,1.36
2018-01-07T04:24:13.398Z,0.81
2018-01-07T04:26:39.170Z,0.66
2018-01-07T04:29:04.953Z,0.74
2018-01-07T04:31:30.729Z,0.68
2018-01-07T04:33:56.615Z,0.63
2018-01-07T04:36:22.391Z,0.61
2018-01-07T04:38:48.162Z,0.50
2018-01-07T04:41:13.942Z,0.48
2018-01-07T04:43:39.740Z,0.42
2018-01-07T04:46:05.516Z,0.44
2018-01-07T04:48:31.289Z,0.48
2018-01-07T04:50:57.083Z,0.43
2018-01-07T04:53:22.866Z,0.51
2018-01-07T04:55:48.634Z,0.40
2018-01-07T04:58:14.446Z,0.51
2018-01-07T05:00:40.231Z,0.31
2018-01-07T05:03:06.011Z,0.33
2018-01-07T05:05:31.807Z,0.32
2018-01-07T05:07:57.594Z,0.28
2018-01-07T05:10:23.383Z,0.28
2018-01-07T05:12:49.157Z,0.36
2018-01-07T05:15:14.982Z,0.30
2018-01-07T05:17:40.761Z,0.29
2018-01-07T05:20:06.542Z,0.28
2018-01-07T05:22:32.381Z,0.23
2018-01-07T05:24:58.171Z,0.29
2018-01-07T05:27:23.941Z,0.27
2018-01-07T05:29:49.738Z,0.28
2018-01-07T05:32:15.860Z,0.25
2018-01-07T05:34:41.643Z,0.14
2018-01-07T05:37:07.438Z,0.21
2018-01-07T05:39:33.202Z,0.16
2018-01-07T05:41:58.979Z,0.13
2018-01-07T05:44:24.772Z,0.16
2018-01-07T05:46:50.544Z,0.09
2018-01-07T05:49:16.326Z,0.13
2018-01-07T05:51:42.146Z,0.11
2018-01-07T05:54:07.937Z,0.11
2018-01-07T05:56:33.726Z,0.13
2018-01-07T05:58:59.519Z,0.08
2018-01-07T06:01:25.296Z,0.10
2018-01-07T06:03:51.081Z,0.09
2018-01-07T06:06:17.056Z,0.13
2018-01-07T06:08:42.859Z,0.03
2018-01-07T06:11:08.629Z,0.06
2018-01-07T06:13:34.442Z,0.07
2018-01-07T06:16:00.255Z,0.15
2018-01-07T06:18:26.023Z,0.09
2018-01-07T06:20:51.801Z,0.12
2018-01-07T06:23:17.607Z,0.13
2018-01-07T06:25:44.434Z,-0.03
2018-01-07T06:28:10.241Z,0.07
2018-01-07T06:30:36.057Z,0.10
2018-01-07T06:33:01.981Z,0.08
2018-01-07T06:35:27.765Z,0.09
2018-01-07T06:37:53.542Z,0.16
2018-01-07T06:40:19.313Z,0.12
2018-01-07T06:42:45.094Z,0.11
2018-01-07T06:45:10.879Z,0.04
2018-01-07T06:47:36.649Z,0.08
2018-01-07T06:50:02.442Z,0.04
2018-01-07T06:52:28.230Z,0.05
2018-01-07T06:54:54.029Z,0.01
2018-01-07T06:57:19.794Z,0.08
2018-01-07T06:59:45.582Z,0.04
2018-01-07T07:02:11.455Z,0.06
2018-01-07T07:04:37.226Z,0.01
2018-01-07T07:07:02.995Z,0.01
2018-01-07T07:09:28.778Z,0.08
2018-01-07T07:11:54.779Z,0.10
2018-01-07T07:14:20.551Z,-0.04
2018-01-07T07:16:46.373Z,0.04
2018-01-07T07:19:12.186Z,0.05
2018-01-07T07:21:37.972Z,0.01
2018-01-07T07:24:03.751Z,0.00
2018-01-07T07:26:29.537Z,0.06
2018-01-07T07:28:55.314Z,-0.02
2018-01-07T07:31:21.893Z,-0.02
2018-01-07T07:33:47.664Z,-0.06
2018-01-07T07:36:13.447Z,-0.02
2018-01-07T07:38:39.234Z,-0.13
2018-01-07T07:41:05.019Z,-0.06
2018-01-07T07:43:30.798Z,0.01
2018-01-07T07:45:56.748Z,-0.06
2018-01-07T07:48:22.547Z,-0.10
2018-01-07T07:50:48.324Z,-0.03
2018-01-07T07:53:14.130Z,0.02
2018-01-07T07:55:39.906Z,0.04
2018-01-07T07:58:05.674Z,-0.02
2018-01-07T08:00:31.714Z,0.11
2018-01-07T08:02:57.498Z,0.07
2018-01-07T08:05:23.273Z,-0.01
2018-01-07T08:07:49.066Z,-0.06
2018-01-07T08:10:14.839Z,-0.02
2018-01-07T08:12:40.611Z,0.06
2018-01-07T08:15:06.418Z,0.10
2018-01-07T08:17:32.205Z,0.01
2018-01-07T08:19:58.026Z,0.06
2018-01-07T08:22:23.798Z,0.11
2018-01-07T08:24:49.606Z,0.02
2018-01-07T08:27:15.413Z,-0.03
2018-01-07T08:29:41.204Z,0.04
2018-01-07T08:32:06.991Z,0.08
2018-01-07T08:34:33.047Z,0.07
2018-01-07T08:36:58.835Z,0.08
2018-01-07T08:39:24.616Z,0.08
2018-01-07T08:41:50.426Z,0.07
2018-01-07T08:44:16.213Z,0.16
2018-01-07T08:46:42.030Z,0.13
2018-01-07T08:49:08.066Z,0.07
2018-01-07T08:51:34.030Z,0.16
2018-01-07T08:54:00.681Z,0.17
2018-01-07T08:56:26.542Z,0.23
2018-01-07T08:58:52.658Z,0.26
2018-01-07T09:01:18.443Z,0.32
2018-01-07T09:03:44.229Z,0.18
2018-01-07T09:06:10.015Z,0.41
2018-01-07T09:08:35.820Z,0.48
2018-01-07T09:11:01.672Z,0.48
2018-01-07T09:13:27.463Z,0.41
2018-01-07T09:15:53.495Z,0.55
2018-01-07T09:18:19.437Z,0.58
2018-01-07T09:20:45.503Z,0.50
2018-01-07T09:23:11.382Z,0.54
2018-01-07T09:25:37.472Z,0.57
2018-01-07T09:28:03.286Z,0.59
2018-01-07T09:30:29.080Z,0.66
2018-01-07T09:32:55.178Z,0.74
2018-01-07T09:35:20.959Z,0.69
2018-01-07T09:37:46.982Z,0.66
2018-01-07T09:40:12.776Z,0.68
2018-01-07T09:42:38.547Z,0.67
2018-01-07T09:45:04.326Z,0.65
2018-01-07T09:47:30.129Z,0.74
2018-01-07T09:49:55.898Z,0.66
2018-01-07T09:52:21.675Z,0.72
2018-01-07T09:54:47.498Z,0.69
2018-01-07T09:57:13.345Z,0.65
2018-01-07T09:59:39.162Z,0.66
2018-01-07T10:02:05.130Z,0.72
2018-01-07T10:04:30.907Z,0.64
2018-01-07T10:06:56.976Z,0.68
2018-01-07T10:09:22.787Z,0.65
2018-01-07T10:11:48.719Z,0.63
2018-01-07T10:14:14.519Z,0.65
2018-01-07T10:16:40.312Z,0.68
2018-01-07T10:19:06.118Z,0.76
2018-01-07T10:21:31.905Z,0.77
2018-01-07T10:23:58.175Z,1.01
2018-01-07T10:26:24.236Z,1.34
2018-01-07T10:28:50.318Z,1.50
2018-01-07T10:31:16.085Z,1.36
2018-01-07T10:33:42.062Z,1.31
2018-01-07T10:36:07.847Z,1.24
2018-01-07T10:38:34.108Z,1.21
2018-01-07T10:41:00.186Z,1.23
2018-01-07T10:43:26.022Z,1.35
2018-01-07T10:45:51.834Z,1.33
2018-01-07T10:48:17.626Z,1.46
2018-01-07T10:50:43.398Z,1.51
2018-01-07T10:53:09.590Z,1.41
2018-01-07T10:55:35.466Z,1.45
2018-01-07T10:58:01.612Z,1.74
2018-01-07T11:00:27.463Z,1.93
2018-01-07T11:02:53.299Z,2.08
2018-01-07T11:05:19.090Z,2.04
2018-01-07T11:07:45.143Z,2.20
2018-01-07T11:10:11.032Z,2.21
2018-01-07T11:12:37.038Z,2.13
2018-01-07T11:15:02.839Z,2.34
2018-01-07T11:17:28.651Z,2.57
2018-01-07T11:19:54.443Z,2.51
2018-01-07T11:22:20.214Z,2.50
2018-01-07T11:24:46.567Z,2.34
2018-01-07T11:27:12.342Z,2.36
2018-01-07T11:29:38.831Z,2.26
2018-01-07T11:32:04.686Z,2.16
2018-01-07T11:34:30.532Z,2.21
2018-01-07T11:36:56.327Z,2.24
2018-01-07T11:39:22.488Z,2.25
2018-01-07T11:41:48.274Z,2.22
2018-01-07T11:44:14.063Z,2.30
2018-01-07T11:46:39.878Z,2.38
2018-01-07T11:49:05.895Z,2.39
2018-01-07T11:51:31.686Z,2.51
2018-01-07T11:53:57.859Z,2.53
2018-01-07T11:56:23.917Z,2.51
2018-01-07T11:58:49.923Z,2.57
2018-01-07T12:01:17.803Z,2.54
2018-01-07T12:03:43.644Z,2.56
2018-01-07T12:06:09.428Z,2.61
2018-01-07T12:08:35.466Z,2.59
2018-01-07T12:11:01.254Z,2.56
2018-01-07T12:13:27.407Z,4.29
2018-01-07T12:15:53.718Z,4.68
2018-01-07T12:18:19.522Z,3.44
2018-01-07T12:20:45.703Z,3.14
2018-01-07T12:23:11.522Z,2.95
2018-01-07T12:25:37.704Z,2.96
2018-01-07T12:28:03.922Z,3.45
2018-01-07T12:30:30.068Z,3.07
2018-01-07T12:32:56.207Z,3.04
2018-01-07T12:35:22.010Z,3.13
2018-01-07T12:37:47.802Z,3.11
2018-01-07T12:40:13.757Z,3.10
2018-01-07T12:42:39.541Z,3.15
2018-01-07T12:45:05.344Z,3.40
2018-01-07T12:47:31.139Z,3.64
2018-01-07T12:49:57.502Z,3.68
2018-01-07T12:52:23.295Z,3.91
2018-01-07T12:54:49.087Z,3.96
2018-01-07T12:57:14.858Z,3.83
2018-01-07T12:59:40.647Z,3.66
2018-01-07T13:02:06.448Z,3.68
2018-01-07T13:04:32.224Z,3.92
2018-01-07T13:06:58.006Z,3.83
2018-01-07T13:09:24.278Z,3.66
2018-01-07T13:11:50.056Z,3.87
2018-01-07T13:14:15.871Z,3.84
2018-01-07T13:16:42.012Z,3.82
2018-01-07T13:19:07.808Z,3.86
2018-01-07T13:21:33.612Z,4.20
2018-01-07T13:23:59.419Z,4.10
2018-01-07T13:26:25.191Z,4.21
2018-01-07T13:28:50.982Z,4.17
2018-01-07T13:31:16.783Z,4.04
2018-01-07T13:33:42.570Z,4.21
2018-01-07T13:36:08.643Z,4.26
2018-01-07T13:38:34.431Z,3.85
2018-01-07T13:41:00.496Z,3.92
2018-01-07T13:43:26.315Z,3.99
2018-01-07T13:45:52.602Z,3.79
2018-01-07T13:48:18.398Z,3.84
2018-01-07T13:50:44.186Z,3.57
2018-01-07T13:53:09.983Z,3.41
2018-01-07T13:55:35.759Z,3.25
2018-01-07T13:58:01.546Z,3.23
2018-01-07T14:00:27.358Z,3.30
2018-01-07T14:02:53.122Z,3.26
2018-01-07T14:05:18.922Z,3.50
2018-01-07T14:07:44.730Z,3.44
2018-01-07T14:10:10.494Z,3.33
2018-01-07T14:12:36.277Z,3.38
2018-01-07T14:15:02.097Z,3.24
2018-01-07T14:17:27.888Z,3.29
2018-01-07T14:19:53.655Z,3.24
2018-01-07T14:22:19.437Z,3.03
2018-01-07T14:24:45.245Z,3.06
2018-01-07T14:27:11.223Z,3.13
2018-01-07T14:29:37.015Z,3.16
2018-01-07T14:32:02.941Z,3.11
2018-01-07T14:34:29.285Z,2.98
2018-01-07T14:36:55.083Z,2.79
2018-01-07T14:39:21.236Z,2.69
2018-01-07T14:41:47.043Z,2.53
2018-01-07T14:44:13.050Z,2.54
2018-01-07T14:46:38.860Z,2.46
2018-01-07T14:49:04.645Z,2.47
2018-01-07T14:51:30.418Z,2.35
2018-01-07T14:53:56.210Z,2.30
2018-01-07T14:56:22.562Z,2.24
2018-01-07T14:58:50.218Z,2.21
2018-01-07T15:01:16.004Z,2.08
2018-01-07T15:03:41.954Z,2.06
2018-01-07T15:06:07.810Z,2.78
2018-01-07T15:08:33.598Z,2.60
2018-01-07T15:10:59.586Z,2.15
2018-01-07T15:13:25.533Z,2.07
2018-01-07T15:15:52.674Z,1.88
2018-01-07T15:18:18.449Z,1.85
2018-01-07T15:20:44.347Z,1.79
2018-01-07T15:23:10.122Z,1.79
2018-01-07T15:25:36.175Z,1.77
2018-01-07T15:28:02.184Z,1.82
2018-01-07T15:30:28.538Z,1.82
2018-01-07T15:32:54.949Z,1.63
2018-01-07T15:35:20.943Z,1.59
2018-01-07T15:37:46.732Z,1.62
2018-01-07T15:40:12.979Z,1.47
2018-01-07T15:42:38.790Z,1.41
2018-01-07T15:45:04.839Z,1.51
2018-01-07T15:47:30.634Z,1.35
2018-01-07T15:49:56.419Z,1.36
2018-01-07T15:52:22.450Z,1.46
2018-01-07T15:54:48.279Z,1.36
2018-01-07T15:57:14.101Z,1.26
2018-01-07T15:59:39.894Z,1.27
2018-01-07T16:02:06.703Z,1.22
2018-01-07T16:04:32.842Z,1.27
2018-01-07T16:06:58.706Z,1.15
2018-01-07T16:09:24.499Z,1.09
2018-01-07T16:11:51.274Z,1.03
2018-01-07T16:14:17.070Z,1.05
2018-01-07T16:16:43.318Z,1.07
2018-01-07T16:19:09.446Z,1.02
2018-01-07T16:21:36.435Z,1.16
2018-01-07T16:24:02.907Z,0.99
2018-01-07T16:26:28.878Z,1.00
2018-01-07T16:28:54.670Z,0.91
2018-01-07T16:31:21.241Z,0.86
2018-01-07T16:33:47.019Z,0.76
2018-01-07T16:36:12.825Z,0.77
2018-01-07T16:38:38.647Z,0.73
2018-01-07T16:41:04.440Z,0.83
2018-01-07T16:43:30.411Z,0.77
2018-01-07T16:45:56.439Z,0.78
2018-01-07T16:48:22.378Z,0.73
2018-01-07T16:50:48.425Z,0.69
2018-01-07T16:53:14.226Z,0.71
2018-01-07T16:55:39.999Z,0.67
2018-01-07T16:58:05.777Z,0.54
2018-01-07T17:00:31.771Z,0.45
2018-01-07T17:02:57.752Z,0.45
2018-01-07T17:05:23.551Z,0.45
2018-01-07T17:07:49.329Z,0.48
2018-01-07T17:10:15.127Z,0.37
2018-01-07T17:12:40.930Z,0.48
2018-01-07T17:15:07.406Z,0.49
2018-01-07T17:17:33.200Z,0.32
2018-01-07T17:19:59.042Z,0.34
2018-01-07T17:22:24.891Z,0.33
2018-01-07T17:24:51.523Z,0.28
2018-01-07T17:27:17.326Z,0.26
2018-01-07T17:29:43.338Z,0.24
2018-01-07T17:32:09.502Z,0.19
2018-01-07T17:34:35.305Z,0.12
2018-01-07T17:37:01.111Z,0.11
2018-01-07T17:39:26.920Z,0.10
2018-01-07T17:41:52.701Z,0.04
2018-01-07T17:44:18.519Z,0.09
2018-01-07T17:46:44.333Z,0.01
2018-01-07T17:49:10.133Z,0.02
2018-01-07T17:51:35.932Z,-0.04
2018-01-07T17:54:01.730Z,-0.04
2018-01-07T17:56:27.747Z,-0.11
2018-01-07T17:58:53.522Z,-0.10
2018-01-07T18:01:19.303Z,-0.10
2018-01-07T18:03:45.111Z,-0.14
2018-01-07T18:06:11.226Z,0.00
2018-01-07T18:08:37.011Z,-0.10
2018-01-07T18:11:02.804Z,-0.12
2018-01-07T18:13:28.631Z,-0.21
2018-01-07T18:15:54.421Z,-0.16
2018-01-07T18:18:20.208Z,-0.12
2018-01-07T18:20:46.018Z,-0.26
2018-01-07T18:23:11.810Z,-0.27
2018-01-07T18:25:38.274Z,-0.25
2018-01-07T18:28:05.134Z,-0.21
2018-01-07T18:30:31.690Z,-0.23
2018-01-07T18:32:57.694Z,-0.25
2018-01-07T18:35:23.491Z,-0.24
2018-01-07T18:37:49.283Z,-0.26
2018-01-07T18:40:15.099Z,-0.31
2018-01-07T18:42:40.908Z,-0.41
2018-01-07T18:45:06.698Z,-0.32
2018-01-07T18:47:32.497Z,-0.31
2018-01-07T18:49:58.276Z,-0.35
2018-01-07T18:52:24.069Z,-0.36
2018-01-07T18:54:50.061Z,-0.40
2018-01-07T18:57:15.852Z,-0.39
2018-01-07T18:59:41.642Z,-0.40
2018-01-07T19:02:07.705Z,-0.42
2018-01-07T19:04:33.511Z,-0.46
2018-01-07T19:06:59.309Z,-0.53
2018-01-07T19:09:25.265Z,-0.51
2018-01-07T19:11:51.060Z,-0.50
2018-01-07T19:14:16.883Z,-0.47
2018-01-07T19:16:42.725Z,-0.43
2018-01-07T19:19:08.563Z,-0.42
2018-01-07T19:21:34.372Z,-0.49
2018-01-07T19:24:01.262Z,-0.49
2018-01-07T19:26:27.075Z,-0.55
2018-01-07T19:28:52.879Z,-0.13
2018-01-07T19:31:18.967Z,0.07
2018-01-07T19:33:45.718Z,0.33
2018-01-07T19:36:11.519Z,0.30
2018-01-07T19:38:37.342Z,0.17
2018-01-07T19:41:03.148Z,0.11
2018-01-07T19:43:28.943Z,0.13
2018-01-07T19:45:55.305Z,0.24
2018-01-07T19:48:21.426Z,0.32
2018-01-07T19:50:47.239Z,0.00
2018-01-07T19:53:13.081Z,-0.41
2018-01-07T19:55:39.029Z,-0.48
2018-01-07T19:58:04.856Z,-0.53
2018-01-07T20:00:30.726Z,-0.67
2018-01-07T20:02:56.548Z,-0.65
2018-01-07T20:05:22.367Z,-0.74
2018-01-07T20:07:48.662Z,-0.70
2018-01-07T20:10:14.510Z,-0.76
2018-01-07T20:12:40.354Z,-0.78
2018-01-07T20:15:06.208Z,-0.79
2018-01-07T20:17:32.769Z,-0.86
2018-01-07T20:19:59.581Z,-0.81
2018-01-07T20:22:25.442Z,-0.80
2018-01-07T20:24:51.542Z,-0.89
2018-01-07T20:27:17.533Z,-0.92
2018-01-07T20:29:43.389Z,-0.91
2018-01-07T20:32:10.132Z,-0.87
2018-01-07T20:34:35.956Z,-0.90
2018-01-07T20:37:01.835Z,-0.87
2018-01-07T20:39:27.638Z,-0.92
2018-01-07T20:41:53.557Z,-0.97
2018-01-07T20:44:19.358Z,-0.94
2018-01-07T20:46:45.234Z,-0.94
2018-01-07T20:49:11.120Z,-0.90
2018-01-07T20:51:36.956Z,-0.89
2018-01-07T20:54:02.810Z,-0.83
2018-01-07T20:56:28.628Z,-0.77
2018-01-07T20:58:54.520Z,-0.84
2018-01-07T21:01:20.330Z,-0.83
2018-01-07T21:03:46.132Z,-0.84
2018-01-07T21:06:11.975Z,-0.93
2018-01-07T21:08:37.783Z,-0.96
2018-01-07T21:11:03.616Z,-0.96
2018-01-07T21:13:29.462Z,-0.92
2018-01-07T21:15:55.243Z,-1.06
2018-01-07T21:18:21.359Z,-1.00
2018-01-07T21:20:47.147Z,-1.03
2018-01-07T21:23:13.531Z,-1.03
2018-01-07T21:25:39.326Z,-1.05
2018-01-07T21:28:05.119Z,-1.02
2018-01-07T21:30:30.922Z,-1.15
2018-01-07T21:32:56.708Z,-1.09
2018-01-07T21:35:22.531Z,-0.70
2018-01-07T21:37:48.351Z,-0.65
2018-01-07T21:40:14.140Z,-1.08
2018-01-07T21:42:40.827Z,-1.17
2018-01-07T21:45:06.646Z,-1.23
2018-01-07T21:47:32.428Z,-1.26
2018-01-07T21:49:58.298Z,-1.25
2018-01-07T21:52:24.125Z,-1.27
2018-01-07T21:54:49.911Z,-1.31
2018-01-07T21:57:15.755Z,-1.13
2018-01-07T21:59:53.982Z,-1.28
2018-01-07T22:02:26.778Z,-1.31
2018-01-07T22:04:55.531Z,-1.46
2018-01-07T22:07:21.976Z,-1.39
2018-01-07T22:09:47.779Z,-1.38
2018-01-07T22:12:19.440Z,-1.35
2018-01-07T22:14:45.429Z,-1.37
2018-01-07T22:17:11.283Z,-1.39
2018-01-07T22:19:37.097Z,-1.46
2018-01-07T22:22:02.910Z,-1.49
2018-01-07T22:24:29.481Z,-1.61
2018-01-07T22:26:56.002Z,-1.43
2018-01-07T22:29:21.799Z,-1.44
2018-01-07T22:31:47.614Z,-1.40
2018-01-07T22:34:13.440Z,-1.41
2018-01-07T22:36:39.267Z,-1.53
2018-01-07T22:39:05.793Z,-1.42
2018-01-07T22:41:31.602Z,-0.78
2018-01-07T22:43:57.429Z,-0.14
2018-01-07T22:46:24.279Z,-0.37
2018-01-07T22:48:50.090Z,-0.01
2018-01-07T22:51:16.558Z,-0.75
2018-01-07T22:53:42.359Z,-1.16
2018-01-07T22:56:08.139Z,-1.36
2018-01-07T22:58:33.952Z,-1.17
2018-01-07T23:00:59.879Z,-0.88
2018-01-07T23:03:25.690Z,-0.65
2018-01-07T23:05:51.480Z,-0.89
2018-01-07T23:08:17.644Z,-0.56
2018-01-07T23:10:43.426Z,-0.96
2018-01-07T23:13:09.198Z,-0.81
2018-01-07T23:15:34.997Z,-0.80
2018-01-07T23:18:01.291Z,-0.87
2018-01-07T23:20:27.092Z,-1.15
2018-01-07T23:22:52.919Z,-1.25
2018-01-07T23:25:18.703Z,-1.30
2018-01-07T23:27:44.482Z,-1.31
2018-01-07T23:30:10.297Z,-1.26
2018-01-07T23:32:36.095Z,-1.20
2018-01-07T23:35:02.755Z,-1.36
2018-01-07T23:37:28.575Z,-1.39
2018-01-07T23:39:54.361Z,-1.34
2018-01-07T23:42:20.148Z,-1.40
2018-01-07T23:44:45.933Z,-1.46
2018-01-07T23:47:11.711Z,-1.46
2018-01-07T23:49:37.676Z,-1.42
2018-01-07T23:52:03.461Z,-1.40
2018-01-07T23:54:29.235Z,-1.35
2018-01-07T23:56:55.047Z,-1.35
2018-01-07T23:59:20.831Z,-1.45
